Time;durP1;ratioP1;P1;durP2;ratioP2;P2;SDS_P1;SDS_P2;PMS_P1;PMS_P2;Temp;Humidity;BMP_temperature;BMP_pressure;BME280_temperature;BME280_humidity;BME280_pressure;Samples;Min_cycle;Max_cycle;Signal;HPM_P1;HPM_P2
2022/05/15 00:01:14;;;;;;;;;7.00;5.00;;;;;;;;4900516;29;45763;-82
2022/05/15 00:03:40;;;;;;;;;5.00;4.00;;;;;;;;4906470;28;45871;-81
2022/05/15 00:06:06;;;;;;;;;4.33;3.33;;;;;;;;4899702;28;45680;-82
2022/05/15 00:08:33;;;;;;;;;4.00;4.00;;;;;;;;4896212;28;45892;-81
2022/05/15 00:10:59;;;;;;;;;2.00;2.00;;;;;;;;4900482;29;45459;-81
2022/05/15 00:13:25;;;;;;;;;3.00;3.00;;;;;;;;4890911;29;45416;-79
2022/05/15 00:15:51;;;;;;;;;3.00;3.00;;;;;;;;4899335;29;45364;-81
2022/05/15 00:18:17;;;;;;;;;2.00;2.00;;;;;;;;4899721;28;45964;-82
2022/05/15 00:20:42;;;;;;;;;4.00;4.00;;;;;;;;4900906;29;45413;-83
2022/05/15 00:23:10;;;;;;;;;4.00;4.00;;;;;;;;4883637;29;45395;-82
2022/05/15 00:25:35;;;;;;;;;4.00;3.00;;;;;;;;4901131;28;45533;-80
2022/05/15 00:28:01;;;;;;;;;3.67;3.67;;;;;;;;4914832;28;47115;-81
2022/05/15 00:30:26;;;;;;;;;3.00;3.00;;;;;;;;4884702;29;45357;-81
2022/05/15 00:32:53;;;;;;;;;4.00;4.00;;;;;;;;4893559;28;45941;-80
2022/05/15 00:35:18;;;;;;;;;9.00;7.67;;;;;;;;4882822;29;45509;-82
2022/05/15 00:37:44;;;;;;;;;8.00;7.00;;;;;;;;4899100;29;45497;-81
2022/05/15 00:40:10;;;;;;;;;18.00;14.67;;;;;;;;4883822;29;45603;-82
2022/05/15 00:42:35;;;;;;;;;16.33;14.33;;;;;;;;4883622;29;45572;-81
2022/05/15 00:45:01;;;;;;;;;20.00;17.33;;;;;;;;4899829;29;45642;-81
2022/05/15 00:47:26;;;;;;;;;5.67;4.00;;;;;;;;4881920;29;45871;-80
2022/05/15 00:49:54;;;;;;;;;17.00;13.67;;;;;;;;4882223;29;45907;-83
2022/05/15 00:52:22;;;;;;;;;11.00;10.00;;;;;;;;4899498;29;45492;-82
2022/05/15 00:54:47;;;;;;;;;16.00;14.00;;;;;;;;4892038;29;45774;-82
2022/05/15 00:57:15;;;;;;;;;18.00;14.67;;;;;;;;4892890;29;45462;-82
2022/05/15 00:59:45;;;;;;;;;13.33;11.33;;;;;;;;4899546;29;45574;-82
2022/05/15 01:02:11;;;;;;;;;10.33;10.33;;;;;;;;4899315;29;45792;-82
2022/05/15 01:04:37;;;;;;;;;7.67;7.67;;;;;;;;4877313;29;45623;-82
2022/05/15 01:07:02;;;;;;;;;8.00;6.00;;;;;;;;4898145;29;45649;-82
2022/05/15 01:09:28;;;;;;;;;3.33;3.33;;;;;;;;4909012;28;45483;-81
2022/05/15 01:11:54;;;;;;;;;5.33;5.00;;;;;;;;4879567;29;45674;-81
2022/05/15 01:14:20;;;;;;;;;5.00;5.00;;;;;;;;4882403;29;45594;-82
2022/05/15 01:16:46;;;;;;;;;8.33;6.33;;;;;;;;4898061;29;45609;-83
2022/05/15 01:19:11;;;;;;;;;3.67;3.00;;;;;;;;4912124;28;48240;-81
2022/05/15 01:21:40;;;;;;;;;5.33;3.00;;;;;;;;4913269;28;45769;-82
2022/05/15 01:24:06;;;;;;;;;6.00;6.00;;;;;;;;4892550;29;45396;-80
2022/05/15 01:26:33;;;;;;;;;4.67;4.00;;;;;;;;4899888;28;45658;-80
2022/05/15 01:28:59;;;;;;;;;3.33;1.00;;;;;;;;4897494;29;46563;-80
2022/05/15 01:31:25;;;;;;;;;5.33;3.67;;;;;;;;4899096;29;45446;-81
2022/05/15 01:33:51;;;;;;;;;7.00;4.00;;;;;;;;4882602;29;45434;-80
2022/05/15 01:36:19;;;;;;;;;5.00;5.00;;;;;;;;4923113;28;46712;-81
2022/05/15 01:38:44;;;;;;;;;7.00;7.00;;;;;;;;4910622;28;45644;-81
2022/05/15 01:41:12;;;;;;;;;3.33;3.33;;;;;;;;4908347;28;45612;-81
2022/05/15 01:43:38;;;;;;;;;8.33;6.67;;;;;;;;4890745;29;45524;-82
2022/05/15 01:46:03;;;;;;;;;3.67;3.67;;;;;;;;4902053;28;45838;-81
2022/05/15 01:48:30;;;;;;;;;5.67;5.00;;;;;;;;4907499;28;46034;-82
2022/05/15 01:50:55;;;;;;;;;5.00;4.00;;;;;;;;4915464;28;45637;-82
2022/05/15 01:53:20;;;;;;;;;4.00;4.00;;;;;;;;4920026;28;45413;-82
2022/05/15 01:55:46;;;;;;;;;5.67;4.67;;;;;;;;4893679;28;46987;-83
2022/05/15 01:58:11;;;;;;;;;6.00;5.00;;;;;;;;4911597;28;46363;-83
2022/05/15 02:00:37;;;;;;;;;6.00;3.50;;;;;;;;4901913;28;45440;-82
2022/05/15 02:03:02;;;;;;;;;3.33;3.33;;;;;;;;4910820;28;45622;-83
2022/05/15 02:05:27;;;;;;;;;5.33;5.00;;;;;;;;4896455;28;45735;-83
2022/05/15 02:07:53;;;;;;;;;5.00;5.00;;;;;;;;4905894;28;45324;-84
2022/05/15 02:10:19;;;;;;;;;1.00;1.00;;;;;;;;4913099;28;45758;-82
2022/05/15 02:12:44;;;;;;;;;7.00;4.33;;;;;;;;4903885;28;45596;-82
2022/05/15 02:15:10;;;;;;;;;6.33;6.33;;;;;;;;4895672;28;46325;-82
2022/05/15 02:17:35;;;;;;;;;7.33;4.33;;;;;;;;4901119;28;46015;-80
2022/05/15 02:20:00;;;;;;;;;4.00;4.00;;;;;;;;4900718;28;45441;-80
2022/05/15 02:22:25;;;;;;;;;5.67;3.00;;;;;;;;4883859;29;45360;-80
2022/05/15 02:24:51;;;;;;;;;4.33;4.33;;;;;;;;4897008;28;45518;-81
2022/05/15 02:27:16;;;;;;;;;5.33;4.00;;;;;;;;4900680;28;45907;-80
2022/05/15 02:29:42;;;;;;;;;5.00;3.00;;;;;;;;4910850;28;45369;-81
2022/05/15 02:32:07;;;;;;;;;6.33;5.00;;;;;;;;4883643;28;45864;-81
2022/05/15 02:34:33;;;;;;;;;6.33;5.33;;;;;;;;4898331;28;45710;-82
2022/05/15 02:36:58;;;;;;;;;3.67;3.67;;;;;;;;4894394;28;45557;-81
2022/05/15 02:39:23;;;;;;;;;5.33;4.00;;;;;;;;4900375;28;45328;-80
2022/05/15 02:41:49;;;;;;;;;5.67;3.67;;;;;;;;4881781;28;45591;-81
2022/05/15 02:44:14;;;;;;;;;5.00;5.00;;;;;;;;4914560;28;46957;-80
2022/05/15 02:46:39;;;;;;;;;5.67;3.33;;;;;;;;4885286;28;46387;-82
2022/05/15 02:51:49;;;;;;;;;3.00;3.00;;;;;;;;4890999;28;45402;-81
2022/05/15 02:54:14;;;;;;;;;4.67;4.67;;;;;;;;4892075;28;45248;-82
2022/05/15 02:56:40;;;;;;;;;5.00;5.00;;;;;;;;4893836;28;46849;-82
2022/05/15 02:59:05;;;;;;;;;7.00;3.67;;;;;;;;4885301;28;45756;-81
2022/05/15 03:01:30;;;;;;;;;3.33;3.00;;;;;;;;4889751;28;45060;-83
2022/05/15 03:03:56;;;;;;;;;6.00;6.00;;;;;;;;4873931;28;45746;-82
2022/05/15 03:06:21;;;;;;;;;2.00;2.00;;;;;;;;4908540;28;47582;-82
2022/05/15 03:08:47;;;;;;;;;5.00;4.00;;;;;;;;4895105;28;45996;-80
2022/05/15 03:11:13;;;;;;;;;3.00;3.00;;;;;;;;4902052;28;46578;-82
2022/05/15 03:13:58;;;;;;;;;4.67;3.00;;;;;;;;4892003;28;45537;-84
2022/05/15 03:16:23;;;;;;;;;4.00;2.00;;;;;;;;4870783;28;45425;-81
2022/05/15 03:18:50;;;;;;;;;5.33;4.00;;;;;;;;4900948;28;46039;-79
2022/05/15 03:21:28;;;;;;;;;3.67;3.00;;;;;;;;4881695;28;45809;-81
2022/05/15 03:24:01;;;;;;;;;4.00;3.33;;;;;;;;4886751;28;45328;-81
2022/05/15 03:26:27;;;;;;;;;3.67;3.67;;;;;;;;4894498;28;45688;-81
2022/05/15 03:28:52;;;;;;;;;4.00;3.00;;;;;;;;4893551;28;45853;-82
2022/05/15 03:31:18;;;;;;;;;4.67;3.67;;;;;;;;4916487;28;45363;-82
2022/05/15 03:33:43;;;;;;;;;4.33;3.00;;;;;;;;4878434;28;46380;-81
2022/05/15 03:36:12;;;;;;;;;6.33;5.00;;;;;;;;4914393;28;45809;-82
2022/05/15 03:38:40;;;;;;;;;3.00;3.00;;;;;;;;4910185;28;45769;-82
2022/05/15 03:41:06;;;;;;;;;4.00;4.00;;;;;;;;4912010;28;45757;-80
2022/05/15 03:43:31;;;;;;;;;3.00;3.00;;;;;;;;4889130;28;45786;-80
2022/05/15 03:45:57;;;;;;;;;7.33;5.00;;;;;;;;4909620;28;45547;-79
2022/05/15 03:48:22;;;;;;;;;3.67;3.00;;;;;;;;4905796;28;45423;-82
2022/05/15 03:50:47;;;;;;;;;5.00;3.00;;;;;;;;4919759;28;45493;-80
2022/05/15 03:53:12;;;;;;;;;4.33;3.00;;;;;;;;4911681;28;45504;-81
2022/05/15 03:55:38;;;;;;;;;5.00;5.00;;;;;;;;4916346;28;45565;-81
2022/05/15 03:58:03;;;;;;;;;4.00;4.00;;;;;;;;4919170;28;45843;-81
2022/05/15 04:00:28;;;;;;;;;2.33;2.33;;;;;;;;4901106;28;45874;-81
2022/05/15 04:02:54;;;;;;;;;6.33;5.00;;;;;;;;4899651;28;46652;-82
2022/05/15 04:05:19;;;;;;;;;3.67;3.67;;;;;;;;4913307;28;45557;-82
2022/05/15 04:07:46;;;;;;;;;2.33;2.33;;;;;;;;4915901;28;45664;-81
2022/05/15 04:10:12;;;;;;;;;5.00;5.00;;;;;;;;4894166;28;45883;-79
2022/05/15 04:12:38;;;;;;;;;5.00;4.67;;;;;;;;4904928;28;45455;-80
2022/05/15 04:15:03;;;;;;;;;5.67;4.00;;;;;;;;4902280;28;45457;-81
2022/05/15 04:17:28;;;;;;;;;6.33;5.00;;;;;;;;4899486;28;45427;-79
2022/05/15 04:19:54;;;;;;;;;2.67;2.67;;;;;;;;4904983;28;45464;-80
2022/05/15 04:22:19;;;;;;;;;5.67;4.00;;;;;;;;4882925;29;45579;-80
2022/05/15 04:24:44;;;;;;;;;3.67;3.00;;;;;;;;4906336;28;46963;-81
2022/05/15 04:27:10;;;;;;;;;5.00;5.00;;;;;;;;4901585;28;45976;-84
2022/05/15 04:29:35;;;;;;;;;6.00;5.00;;;;;;;;4896886;29;45602;-81
2022/05/15 04:32:00;;;;;;;;;4.00;4.00;;;;;;;;4889594;28;46232;-82
2022/05/15 04:34:26;;;;;;;;;5.00;5.00;;;;;;;;4913328;28;45480;-81
2022/05/15 04:36:52;;;;;;;;;5.67;4.67;;;;;;;;4880068;28;45820;-81
2022/05/15 04:39:18;;;;;;;;;3.67;3.67;;;;;;;;4897322;28;45835;-82
2022/05/15 04:41:44;;;;;;;;;5.67;4.00;;;;;;;;4890704;29;45860;-82
2022/05/15 04:44:10;;;;;;;;;3.67;3.67;;;;;;;;4905614;28;45656;-81
2022/05/15 04:46:35;;;;;;;;;4.67;4.00;;;;;;;;4906120;28;45601;-79
2022/05/15 04:49:01;;;;;;;;;5.00;5.00;;;;;;;;4900492;29;45929;-83
2022/05/15 04:51:26;;;;;;;;;3.00;3.00;;;;;;;;4899078;28;45705;-80
2022/05/15 04:53:52;;;;;;;;;5.33;4.00;;;;;;;;4899498;29;45485;-80
2022/05/15 04:56:17;;;;;;;;;4.00;3.00;;;;;;;;4899766;29;45720;-81
2022/05/15 04:58:43;;;;;;;;;4.00;4.00;;;;;;;;4899569;29;45833;-80
2022/05/15 05:01:08;;;;;;;;;4.00;4.00;;;;;;;;4872128;28;47572;-82
2022/05/15 05:03:34;;;;;;;;;5.00;4.00;;;;;;;;4897913;28;45637;-83
2022/05/15 05:06:00;;;;;;;;;4.67;4.67;;;;;;;;4880187;29;45876;-81
2022/05/15 05:08:25;;;;;;;;;3.00;3.00;;;;;;;;4904567;28;45527;-83
2022/05/15 05:10:50;;;;;;;;;4.67;3.67;;;;;;;;4909564;28;46041;-84
2022/05/15 05:13:16;;;;;;;;;7.33;6.33;;;;;;;;4897923;28;45782;-83
2022/05/15 05:15:41;;;;;;;;;4.33;3.00;;;;;;;;4869146;29;45388;-85
2022/05/15 05:18:06;;;;;;;;;4.67;3.33;;;;;;;;4895577;28;45489;-81
2022/05/15 05:20:32;;;;;;;;;2.33;2.33;;;;;;;;4888773;29;45336;-82
2022/05/15 05:22:57;;;;;;;;;4.33;3.33;;;;;;;;4905854;28;46135;-83
2022/05/15 05:25:22;;;;;;;;;3.00;3.00;;;;;;;;4891840;29;45429;-83
2022/05/15 05:31:22;;;;;;;;;;;;;;;;;;;;;
2022/05/15 05:33:51;;;;;;;;;5.00;4.00;;;;;;;;4843155;29;75084;-86
2022/05/15 05:36:16;;;;;;;;;5.00;3.00;;;;;;;;4821810;29;45643;-88
2022/05/15 05:38:45;;;;;;;;;6.00;2.67;;;;;;;;4831373;29;45975;-86
2022/05/15 05:41:37;;;;;;;;;3.33;2.67;;;;;;;;4916953;28;45400;-83
2022/05/15 05:44:03;;;;;;;;;3.33;3.33;;;;;;;;4881223;29;48399;-83
2022/05/15 05:46:29;;;;;;;;;3.67;3.67;;;;;;;;4900063;28;45287;-86
2022/05/15 05:49:01;;;;;;;;;6.00;4.67;;;;;;;;4898865;28;45709;-84
2022/05/15 05:51:28;;;;;;;;;4.00;4.00;;;;;;;;4892394;29;45611;-86
2022/05/15 05:54:33;;;;;;;;;4.33;2.00;;;;;;;;4893800;28;46197;-86
2022/05/15 06:00:16;;;;;;;;;3.00;3.00;;;;;;;;4855957;29;46007;-86
2022/05/15 06:02:44;;;;;;;;;3.00;3.00;;;;;;;;4900405;28;45881;-87
2022/05/15 06:05:35;;;;;;;;;;;;;;;;;;;;;
2022/05/15 06:12:41;;;;;;;;;;;;;;;;;;;;;
2022/05/15 06:15:20;;;;;;;;;;;;;;;;;;;;;
2022/05/15 06:17:51;;;;;;;;;8.00;4.67;;;;;;;;4867988;29;73663;-88
2022/05/15 06:20:20;;;;;;;;;4.00;4.00;;;;;;;;4881229;29;45652;-87
2022/05/15 06:22:54;;;;;;;;;3.67;3.67;;;;;;;;4891241;29;45485;-87
2022/05/15 06:25:19;;;;;;;;;2.67;2.67;;;;;;;;4902121;28;46099;-87
2022/05/15 06:27:45;;;;;;;;;3.00;3.00;;;;;;;;4905537;28;45807;-86
2022/05/15 06:30:15;;;;;;;;;35.67;27.00;;;;;;;;4912504;28;45679;-88
2022/05/15 06:32:40;;;;;;;;;5.00;5.00;;;;;;;;4904542;28;46060;-84
2022/05/15 06:35:07;;;;;;;;;4.25;4.25;;;;;;;;4909152;28;45717;-85
2022/05/15 06:37:35;;;;;;;;;4.25;4.25;;;;;;;;4906533;28;45617;-84
2022/05/15 06:40:02;;;;;;;;;4.75;4.75;;;;;;;;4917860;28;45523;-86
2022/05/15 06:42:34;;;;;;;;;4.00;4.00;;;;;;;;4906824;28;45527;-87
2022/05/15 06:45:00;;;;;;;;;1.25;1.25;;;;;;;;4897809;28;45787;-84
2022/05/15 06:47:51;;;;;;;;;3.00;3.00;;;;;;;;4908965;28;46892;-83
2022/05/15 06:50:20;;;;;;;;;3.00;3.00;;;;;;;;4889062;28;45524;-85
2022/05/15 06:52:47;;;;;;;;;5.33;5.33;;;;;;;;4921749;28;45611;-86
2022/05/15 06:55:14;;;;;;;;;3.00;3.00;;;;;;;;4899713;28;45708;-87
2022/05/15 06:57:41;;;;;;;;;2.25;2.25;;;;;;;;4913857;28;45921;-85
2022/05/15 07:00:08;;;;;;;;;3.75;3.75;;;;;;;;4919811;28;45463;-84
2022/05/15 07:02:34;;;;;;;;;4.50;4.50;;;;;;;;4918966;28;45780;-87
2022/05/15 07:05:00;;;;;;;;;4.00;4.00;;;;;;;;4920241;28;46096;-87
2022/05/15 07:07:37;;;;;;;;;4.00;4.00;;;;;;;;4922174;28;46127;-86
2022/05/15 07:10:09;;;;;;;;;3.75;3.75;;;;;;;;4903569;28;45626;-87
2022/05/15 07:12:35;;;;;;;;;5.50;3.50;;;;;;;;4914158;28;45552;-87
2022/05/15 07:15:03;;;;;;;;;3.50;3.50;;;;;;;;4898941;28;46105;-86
2022/05/15 07:17:40;;;;;;;;;5.00;4.25;;;;;;;;4905029;28;45654;-87
2022/05/15 07:20:18;;;;;;;;;4.00;3.75;;;;;;;;4921974;28;45487;-89
2022/05/15 07:22:56;;;;;;;;;6.25;5.00;;;;;;;;4910374;28;45448;-88
2022/05/15 07:25:58;;;;;;;;;4.75;4.75;;;;;;;;4929162;28;45746;-88
2022/05/15 07:34:20;;;;;;;;;4.25;3.25;;;;;;;;4819814;29;45357;-85
2022/05/15 07:36:50;;;;;;;;;4.25;3.50;;;;;;;;4861691;29;46235;-89
2022/05/15 07:42:54;;;;;;;;;4.25;4.25;;;;;;;;4886171;28;45229;-86
2022/05/15 07:45:57;;;;;;;;;;;;;;;;;;;;;
2022/05/15 07:49:05;;;;;;;;;5.00;5.00;;;;;;;;4895279;29;74850;-84
2022/05/15 07:51:37;;;;;;;;;4.00;3.00;;;;;;;;4901983;28;46044;-87
2022/05/15 07:54:33;;;;;;;;;3.00;3.00;;;;;;;;4922250;28;45352;-88
2022/05/15 07:56:58;;;;;;;;;6.00;5.25;;;;;;;;4908246;28;46115;-82
2022/05/15 07:59:23;;;;;;;;;7.00;5.33;;;;;;;;4901241;28;46095;-83
2022/05/15 08:01:49;;;;;;;;;13.33;12.33;;;;;;;;4906489;28;47021;-82
2022/05/15 08:04:15;;;;;;;;;4.00;4.00;;;;;;;;4908159;28;45519;-81
2022/05/15 08:09:24;;;;;;;;;5.25;4.00;;;;;;;;4926838;28;45261;-84
2022/05/15 08:11:49;;;;;;;;;4.25;4.00;;;;;;;;4925355;28;45510;-81
2022/05/15 08:14:17;;;;;;;;;5.00;4.00;;;;;;;;4919224;28;45336;-81
2022/05/15 08:16:42;;;;;;;;;2.00;2.00;;;;;;;;4910175;28;45874;-81
2022/05/15 08:24:40;;;;;;;;;3.00;3.00;;;;;;;;4912951;28;45969;-84
2022/05/15 08:27:05;;;;;;;;;5.67;4.33;;;;;;;;4894793;28;45880;-80
2022/05/15 08:29:30;;;;;;;;;2.75;2.75;;;;;;;;4911300;28;45807;-82
2022/05/15 08:31:56;;;;;;;;;5.00;2.00;;;;;;;;4916803;28;45874;-83
2022/05/15 08:34:21;;;;;;;;;2.00;2.00;;;;;;;;4917285;28;45448;-82
2022/05/15 08:36:47;;;;;;;;;3.75;3.75;;;;;;;;4904829;28;45832;-84
2022/05/15 08:39:13;;;;;;;;;2.00;2.00;;;;;;;;4894577;28;45833;-83
2022/05/15 08:41:50;;;;;;;;;2.00;2.00;;;;;;;;4915095;28;45953;-81
2022/05/15 08:44:18;;;;;;;;;1.50;1.25;;;;;;;;4918433;28;45918;-82
2022/05/15 08:46:43;;;;;;;;;1.00;1.00;;;;;;;;4894477;28;45520;-81
2022/05/15 08:49:11;;;;;;;;;3.00;3.00;;;;;;;;4915702;28;45592;-82
2022/05/15 08:51:38;;;;;;;;;2.00;2.00;;;;;;;;4912142;28;46819;-83
2022/05/15 08:54:05;;;;;;;;;2.25;2.25;;;;;;;;4914571;28;45414;-80
2022/05/15 08:56:44;;;;;;;;;3.00;3.00;;;;;;;;4901195;28;45751;-83
2022/05/15 08:59:19;;;;;;;;;2.00;2.00;;;;;;;;4920148;28;45876;-84
2022/05/15 09:01:52;;;;;;;;;2.25;2.00;;;;;;;;4915133;28;45970;-83
2022/05/15 09:04:18;;;;;;;;;2.00;2.00;;;;;;;;4918259;28;45863;-83
2022/05/15 09:07:02;;;;;;;;;1.00;1.00;;;;;;;;4925439;28;45462;-83
2022/05/15 09:09:30;;;;;;;;;2.25;2.00;;;;;;;;4892629;28;45638;-84
2022/05/15 09:12:16;;;;;;;;;2.00;2.00;;;;;;;;4920319;28;45738;-79
2022/05/15 09:14:53;;;;;;;;;1.25;1.00;;;;;;;;4893418;28;46119;-80
2022/05/15 09:17:22;;;;;;;;;3.00;1.50;;;;;;;;4911447;28;45542;-81
2022/05/15 09:19:49;;;;;;;;;1.00;1.00;;;;;;;;4885044;28;45945;-83
2022/05/15 09:22:14;;;;;;;;;2.00;1.00;;;;;;;;4917328;28;46563;-82
2022/05/15 09:24:43;;;;;;;;;1.25;1.25;;;;;;;;4896969;28;45889;-79
2022/05/15 09:27:35;;;;;;;;;4.00;2.75;;;;;;;;4898225;28;45547;-83
2022/05/15 09:30:07;;;;;;;;;2.50;1.50;;;;;;;;4910009;28;45555;-82
2022/05/15 09:32:35;;;;;;;;;1.25;1.25;;;;;;;;4915376;28;47057;-83
2022/05/15 09:35:05;;;;;;;;;3.00;1.25;;;;;;;;4912475;28;45995;-83
2022/05/15 09:40:23;;;;;;;;;1.00;1.00;;;;;;;;4910959;28;45448;-82
2022/05/15 09:45:47;;;;;;;;;3.25;1.75;;;;;;;;4910372;28;45896;-85
2022/05/15 09:48:13;;;;;;;;;1.00;1.00;;;;;;;;4920097;28;45530;-84
2022/05/15 09:50:40;;;;;;;;;2.25;2.25;;;;;;;;4899462;28;45626;-83
2022/05/15 09:53:08;;;;;;;;;2.25;1.25;;;;;;;;4898448;28;46876;-84
2022/05/15 09:55:33;;;;;;;;;2.00;2.00;;;;;;;;4887471;28;45512;-80
2022/05/15 09:58:04;;;;;;;;;8.50;5.75;;;;;;;;4905730;28;45823;-84
2022/05/15 10:00:35;;;;;;;;;1.25;1.00;;;;;;;;4911136;28;46026;-81
2022/05/15 10:03:14;;;;;;;;;1.75;1.75;;;;;;;;4900628;28;48158;-82
2022/05/15 10:05:55;;;;;;;;;0.50;0.50;;;;;;;;4910529;28;45881;-86
2022/05/15 10:08:22;;;;;;;;;1.25;1.25;;;;;;;;4910212;28;46110;-82
2022/05/15 10:10:58;;;;;;;;;2.00;2.00;;;;;;;;4900289;28;45972;-82
2022/05/15 10:13:26;;;;;;;;;1.00;1.00;;;;;;;;4912710;28;46050;-79
2022/05/15 10:15:55;;;;;;;;;3.00;2.00;;;;;;;;4910159;28;45738;-80
2022/05/15 10:18:32;;;;;;;;;1.00;1.00;;;;;;;;4903502;28;45738;-80
2022/05/15 10:21:00;;;;;;;;;1.00;1.00;;;;;;;;4910222;28;45816;-81
2022/05/15 10:23:27;;;;;;;;;1.25;1.25;;;;;;;;4882446;28;47660;-79
2022/05/15 10:26:07;;;;;;;;;1.00;1.00;;;;;;;;4910370;28;45823;-78
2022/05/15 10:28:33;;;;;;;;;1.50;1.50;;;;;;;;4912226;28;46074;-79
2022/05/15 10:31:04;;;;;;;;;1.00;1.00;;;;;;;;4910512;28;45952;-80
2022/05/15 10:33:35;;;;;;;;;4.00;2.25;;;;;;;;4893917;28;48355;-78
2022/05/15 10:36:03;;;;;;;;;1.00;1.00;;;;;;;;4912325;28;45522;-78
2022/05/15 10:38:33;;;;;;;;;3.00;1.50;;;;;;;;4913871;28;45434;-81
2022/05/15 10:41:28;;;;;;;;;1.00;1.00;;;;;;;;4904368;28;46996;-80
2022/05/15 10:43:53;;;;;;;;;3.50;3.50;;;;;;;;4878096;28;45889;-78
2022/05/15 10:46:27;;;;;;;;;1.00;1.00;;;;;;;;4910625;28;45762;-82
2022/05/15 10:48:55;;;;;;;;;1.75;0.75;;;;;;;;4912598;28;45593;-79
2022/05/15 10:51:23;;;;;;;;;2.00;2.00;;;;;;;;4912290;28;45799;-79
2022/05/15 10:59:35;;;;;;;;;3.00;2.00;;;;;;;;4914747;28;45461;-81
2022/05/15 11:02:21;;;;;;;;;1.00;1.00;;;;;;;;4923958;28;45535;-79
2022/05/15 11:04:52;;;;;;;;;1.75;1.75;;;;;;;;4912176;28;47015;-81
2022/05/15 11:07:36;;;;;;;;;1.50;1.00;;;;;;;;4913256;28;46138;-82
2022/05/15 11:10:18;;;;;;;;;3.50;2.00;;;;;;;;4921732;28;45646;-82
2022/05/15 11:13:03;;;;;;;;;1.50;1.50;;;;;;;;4906317;28;45398;-85
2022/05/15 11:15:39;;;;;;;;;4.25;1.25;;;;;;;;4913569;28;45464;-84
2022/05/15 11:18:14;;;;;;;;;1.00;1.00;;;;;;;;4925808;28;45432;-80
2022/05/15 11:20:44;;;;;;;;;1.00;1.00;;;;;;;;4926187;28;46049;-81
2022/05/15 11:23:13;;;;;;;;;2.00;2.00;;;;;;;;4912487;28;46131;-82
2022/05/15 11:25:46;;;;;;;;;2.00;1.00;;;;;;;;4915410;28;46194;-82
2022/05/15 11:28:30;;;;;;;;;1.00;1.00;;;;;;;;4908271;28;45351;-84
2022/05/15 11:31:02;;;;;;;;;1.00;1.00;;;;;;;;4924505;28;45843;-81
2022/05/15 11:33:46;;;;;;;;;4.00;2.25;;;;;;;;4908903;28;45842;-82
2022/05/15 11:36:14;;;;;;;;;1.00;1.00;;;;;;;;4910518;28;46326;-85
2022/05/15 11:38:59;;;;;;;;;3.00;3.00;;;;;;;;4914218;28;45455;-83
2022/05/15 11:41:36;;;;;;;;;2.00;2.00;;;;;;;;4925079;28;45397;-85
2022/05/15 11:44:17;;;;;;;;;3.00;2.00;;;;;;;;4924790;28;45706;-80
2022/05/15 11:46:51;;;;;;;;;2.50;2.50;;;;;;;;4914568;28;46441;-82
2022/05/15 11:49:40;;;;;;;;;2.50;2.00;;;;;;;;4921393;28;45804;-82
2022/05/15 11:52:09;;;;;;;;;1.50;1.50;;;;;;;;4916860;28;45700;-79
2022/05/15 11:54:36;;;;;;;;;2.00;2.00;;;;;;;;4908030;28;45598;-79
2022/05/15 11:57:02;;;;;;;;;4.50;2.50;;;;;;;;4930123;28;45637;-81
2022/05/15 11:59:28;;;;;;;;;3.75;2.75;;;;;;;;4924685;28;45497;-83
2022/05/15 12:02:01;;;;;;;;;2.75;2.75;;;;;;;;4932546;28;45817;-84
2022/05/15 12:04:36;;;;;;;;;3.00;1.75;;;;;;;;4919697;28;45922;-83
2022/05/15 12:07:32;;;;;;;;;;;;;;;;;;;;;
2022/05/15 12:09:53;;;;;;;;;3.50;2.00;;;;;;;;4924486;28;46098;-83
2022/05/15 12:12:30;;;;;;;;;3.00;2.00;;;;;;;;4908872;28;45693;-82
2022/05/15 12:15:05;;;;;;;;;3.00;1.25;;;;;;;;4925238;28;45738;-82
2022/05/15 12:17:32;;;;;;;;;3.00;1.50;;;;;;;;4922193;28;45661;-82
2022/05/15 12:20:05;;;;;;;;;2.25;2.25;;;;;;;;4915713;28;45495;-84
2022/05/15 12:22:36;;;;;;;;;3.33;2.00;;;;;;;;4911765;28;45817;-83
2022/05/15 12:25:10;;;;;;;;;3.00;2.00;;;;;;;;4909567;28;45887;-82
2022/05/15 12:30:54;;;;;;;;;2.00;2.00;;;;;;;;4829363;29;6461244;-81
2022/05/15 12:33:39;;;;;;;;;2.00;2.00;;;;;;;;4918906;28;45485;-80
2022/05/15 12:42:33;;;;;;;;;2.25;1.00;;;;;;;;4910568;28;45649;-81
2022/05/15 12:45:04;;;;;;;;;2.50;2.00;;;;;;;;4893166;28;45953;-84
2022/05/15 12:47:56;;;;;;;;;;;;;;;;;;;;;
2022/05/15 12:50:28;;;;;;;;;1.00;1.00;;;;;;;;4907593;28;71956;-82
2022/05/15 12:57:29;;;;;;;;;1.50;1.00;;;;;;;;4819038;29;45423;-82
2022/05/15 12:59:59;;;;;;;;;4.00;2.33;;;;;;;;4834005;28;45559;-82
2022/05/15 13:02:32;;;;;;;;;2.00;1.00;;;;;;;;4926428;28;45680;-83
2022/05/15 13:05:00;;;;;;;;;2.00;2.00;;;;;;;;4921331;28;45570;-82
2022/05/15 13:07:30;;;;;;;;;2.00;1.50;;;;;;;;4919735;28;45741;-80
2022/05/15 13:10:16;;;;;;;;;1.00;1.00;;;;;;;;4902648;28;45543;-78
2022/05/15 13:13:08;;;;;;;;;2.00;2.00;;;;;;;;4894420;28;45873;-78
2022/05/15 13:15:37;;;;;;;;;1.25;1.25;;;;;;;;4902183;28;45760;-78
2022/05/15 13:18:12;;;;;;;;;4.00;2.00;;;;;;;;4905865;28;46412;-81
2022/05/15 13:20:45;;;;;;;;;3.75;2.25;;;;;;;;4885106;28;45448;-84
2022/05/15 13:23:11;;;;;;;;;4.00;4.00;;;;;;;;4888376;28;45727;-79
2022/05/15 13:25:41;;;;;;;;;3.33;2.33;;;;;;;;4907430;28;45628;-80
2022/05/15 13:28:08;;;;;;;;;1.25;1.25;;;;;;;;4910282;28;45720;-77
2022/05/15 13:30:34;;;;;;;;;1.25;1.25;;;;;;;;4906317;28;46104;-79
2022/05/15 13:33:04;;;;;;;;;1.25;1.25;;;;;;;;4907686;28;45538;-80
2022/05/15 13:35:33;;;;;;;;;2.00;2.00;;;;;;;;4907748;28;45806;-78
2022/05/15 13:38:10;;;;;;;;;3.25;3.25;;;;;;;;4909211;28;45449;-81
2022/05/15 13:43:23;;;;;;;;;1.00;1.00;;;;;;;;4912375;28;45400;-82
2022/05/15 13:45:50;;;;;;;;;2.75;2.25;;;;;;;;4896928;28;45975;-83
2022/05/15 13:48:15;;;;;;;;;2.25;2.25;;;;;;;;4903326;28;46135;-81
2022/05/15 13:50:40;;;;;;;;;2.00;2.00;;;;;;;;4891509;28;46825;-82
2022/05/15 13:53:19;;;;;;;;;2.50;2.50;;;;;;;;4897413;28;45616;-80
2022/05/15 13:55:46;;;;;;;;;2.25;2.00;;;;;;;;4918222;28;45398;-82
2022/05/15 13:58:12;;;;;;;;;2.00;2.00;;;;;;;;4908015;28;45555;-82
2022/05/15 14:00:39;;;;;;;;;2.00;2.00;;;;;;;;4911115;28;46121;-82
2022/05/15 14:03:08;;;;;;;;;2.00;1.25;;;;;;;;4910184;28;45664;-83
2022/05/15 14:05:35;;;;;;;;;1.75;1.75;;;;;;;;4910142;28;45532;-81
2022/05/15 14:08:07;;;;;;;;;2.00;2.00;;;;;;;;4917723;28;45524;-83
2022/05/15 14:10:33;;;;;;;;;2.00;2.00;;;;;;;;4916718;28;45603;-82
2022/05/15 14:13:01;;;;;;;;;2.00;2.00;;;;;;;;4918148;28;45612;-82
2022/05/15 14:15:28;;;;;;;;;1.00;1.00;;;;;;;;4919282;28;45590;-83
2022/05/15 14:17:58;;;;;;;;;2.00;2.00;;;;;;;;4923847;28;45705;-81
2022/05/15 14:20:25;;;;;;;;;1.00;1.00;;;;;;;;4913658;28;45574;-84
2022/05/15 14:22:50;;;;;;;;;2.50;2.50;;;;;;;;4911646;28;45781;-83
2022/05/15 14:25:16;;;;;;;;;1.25;1.25;;;;;;;;4916885;28;45871;-82
2022/05/15 14:27:41;;;;;;;;;4.25;3.00;;;;;;;;4916288;28;45625;-81
2022/05/15 14:30:07;;;;;;;;;6.00;3.00;;;;;;;;4930550;28;45654;-83
2022/05/15 14:32:33;;;;;;;;;2.00;1.25;;;;;;;;4920186;28;45449;-82
2022/05/15 14:34:59;;;;;;;;;2.00;2.00;;;;;;;;4906138;28;45858;-80
2022/05/15 14:37:26;;;;;;;;;2.50;2.00;;;;;;;;4918114;28;45526;-83
2022/05/15 14:39:51;;;;;;;;;3.00;3.00;;;;;;;;4900307;28;46014;-82
2022/05/15 14:42:17;;;;;;;;;2.25;2.25;;;;;;;;4908376;28;45501;-78
2022/05/15 14:44:42;;;;;;;;;2.50;2.50;;;;;;;;4912645;28;45953;-80
2022/05/15 14:47:11;;;;;;;;;2.00;2.00;;;;;;;;4898402;28;46226;-79
2022/05/15 14:49:37;;;;;;;;;3.50;1.75;;;;;;;;4909921;28;46271;-81
2022/05/15 14:52:03;;;;;;;;;4.00;3.00;;;;;;;;4914215;28;45420;-82
2022/05/15 14:54:30;;;;;;;;;3.25;2.25;;;;;;;;4910780;28;45783;-84
2022/05/15 14:56:57;;;;;;;;;2.00;2.00;;;;;;;;4914101;28;45497;-84
2022/05/15 14:59:27;;;;;;;;;3.00;1.00;;;;;;;;4901712;28;46876;-86
2022/05/15 15:01:52;;;;;;;;;2.25;1.50;;;;;;;;4906373;28;46007;-82
2022/05/15 15:04:18;;;;;;;;;2.00;1.25;;;;;;;;4918204;28;45601;-83
2022/05/15 15:06:44;;;;;;;;;2.00;2.00;;;;;;;;4901305;28;46474;-85
2022/05/15 15:09:10;;;;;;;;;4.00;2.25;;;;;;;;4916235;28;45326;-83
2022/05/15 15:11:50;;;;;;;;;2.00;2.00;;;;;;;;4912209;28;45495;-83
2022/05/15 15:14:16;;;;;;;;;6.50;4.00;;;;;;;;4920800;28;45784;-84
2022/05/15 15:16:43;;;;;;;;;4.25;2.75;;;;;;;;4924851;28;46704;-84
2022/05/15 15:19:09;;;;;;;;;4.25;3.25;;;;;;;;4923436;28;45637;-84
2022/05/15 15:21:36;;;;;;;;;4.00;3.00;;;;;;;;4911868;28;45463;-84
2022/05/15 15:24:02;;;;;;;;;2.00;2.00;;;;;;;;4906048;28;45501;-85
2022/05/15 15:26:36;;;;;;;;;1.00;1.00;;;;;;;;4923673;28;45468;-84
2022/05/15 15:29:05;;;;;;;;;2.50;2.00;;;;;;;;4925291;28;47104;-84
2022/05/15 15:31:32;;;;;;;;;3.00;2.00;;;;;;;;4918418;28;45443;-84
2022/05/15 15:33:59;;;;;;;;;2.00;2.00;;;;;;;;4909607;28;45463;-86
2022/05/15 15:36:24;;;;;;;;;3.00;3.00;;;;;;;;4913977;28;46158;-85
2022/05/15 15:38:51;;;;;;;;;3.25;3.25;;;;;;;;4888789;28;48235;-82
2022/05/15 15:41:38;;;;;;;;;5.50;3.00;;;;;;;;4888860;28;45730;-83
2022/05/15 15:44:08;;;;;;;;;5.00;2.00;;;;;;;;4909372;28;45462;-80
2022/05/15 15:46:42;;;;;;;;;3.00;3.00;;;;;;;;4896289;28;45795;-85
2022/05/15 15:49:10;;;;;;;;;2.25;2.25;;;;;;;;4902214;28;46991;-83
2022/05/15 15:51:40;;;;;;;;;3.00;2.25;;;;;;;;4904921;28;45414;-84
2022/05/15 15:54:15;;;;;;;;;6.25;3.00;;;;;;;;4890441;28;45990;-83
2022/05/15 15:56:40;;;;;;;;;5.25;3.75;;;;;;;;4895163;28;46388;-83
2022/05/15 15:59:07;;;;;;;;;3.00;3.00;;;;;;;;4907374;28;47441;-84
2022/05/15 16:01:33;;;;;;;;;4.00;2.25;;;;;;;;4923099;28;45798;-85